createdAt,value
2022-12-03T00:01:35.462Z,6.78
2022-12-03T00:03:37.407Z,7.72
2022-12-03T00:05:41.885Z,6.05
2022-12-03T00:07:49.958Z,7.07
2022-12-03T00:09:51.697Z,7.28
2022-12-03T00:11:53.390Z,6.43
2022-12-03T00:13:55.130Z,5.53
2022-12-03T00:15:56.903Z,6.35
2022-12-03T00:17:58.766Z,6.22
2022-12-03T00:20:00.672Z,6.93
2022-12-03T00:22:02.367Z,6.80
2022-12-03T00:24:04.265Z,5.82
2022-12-03T00:26:06.010Z,5.70
2022-12-03T00:28:07.821Z,5.85
2022-12-03T00:30:10.539Z,6.28
2022-12-03T00:32:12.315Z,5.53
2022-12-03T00:34:14.065Z,5.63
2022-12-03T00:36:15.788Z,4.88
2022-12-03T00:38:17.694Z,5.45
2022-12-03T00:40:19.550Z,6.00
2022-12-03T00:42:21.297Z,6.57
2022-12-03T00:44:23.055Z,6.22
2022-12-03T00:46:25.405Z,5.57
2022-12-03T00:48:27.183Z,5.15
2022-12-03T00:50:28.985Z,6.43
2022-12-03T00:52:30.814Z,7.17
2022-12-03T00:54:32.567Z,5.97
2022-12-03T00:56:34.420Z,5.90
2022-12-03T00:58:36.223Z,6.30
2022-12-03T01:00:38.220Z,6.88
2022-12-03T01:02:40.055Z,7.95
2022-12-03T01:04:41.886Z,5.57
2022-12-03T01:06:43.664Z,6.40
2022-12-03T01:08:45.436Z,6.82
2022-12-03T01:10:47.216Z,5.80
2022-12-03T01:12:48.945Z,7.28
2022-12-03T01:14:51.124Z,5.38
2022-12-03T01:16:53.089Z,5.70
2022-12-03T01:18:54.887Z,6.95
2022-12-03T01:20:56.779Z,5.88
2022-12-03T01:22:58.557Z,6.80
2022-12-03T01:25:00.297Z,5.72
2022-12-03T01:27:02.056Z,6.93
2022-12-03T01:29:04.583Z,6.88
2022-12-03T01:31:28.519Z,6.45
2022-12-03T01:33:30.278Z,7.40
2022-12-03T01:35:31.990Z,6.93
2022-12-03T01:37:33.745Z,5.57
2022-12-03T01:39:35.552Z,5.53
2022-12-03T01:41:37.641Z,7.25
2022-12-03T01:43:39.413Z,6.88
2022-12-03T01:45:41.221Z,6.93
2022-12-03T01:47:42.990Z,5.68
2022-12-03T01:49:48.568Z,6.78
2022-12-03T01:51:52.014Z,7.45
2022-12-03T01:53:53.738Z,5.90
2022-12-03T01:55:55.709Z,7.25
2022-12-03T01:58:00.313Z,6.90
2022-12-03T02:00:02.169Z,6.40
2022-12-03T02:02:22.220Z,6.43
2022-12-03T02:04:24.300Z,9.02
2022-12-03T02:06:28.415Z,7.10
2022-12-03T02:08:35.110Z,7.22
2022-12-03T02:10:37.950Z,7.63
2022-12-03T02:12:48.802Z,6.75
2022-12-03T02:14:50.805Z,6.55
2022-12-03T02:16:52.655Z,7.50
2022-12-03T02:18:54.380Z,7.95
2022-12-03T02:21:20.829Z,8.65
2022-12-03T02:23:34.297Z,8.20
2022-12-03T02:25:36.558Z,7.60
2022-12-03T02:27:38.487Z,7.53
2022-12-03T02:29:40.257Z,6.78
2022-12-03T02:31:42.931Z,7.30
2022-12-03T02:33:44.895Z,7.32
2022-12-03T02:35:49.754Z,6.70
2022-12-03T02:38:07.476Z,8.52
2022-12-03T02:40:12.496Z,8.10
2022-12-03T02:42:33.050Z,9.07
2022-12-03T02:44:34.805Z,8.63
2022-12-03T02:46:36.721Z,8.38
2022-12-03T02:48:40.274Z,8.82
2022-12-03T02:50:46.727Z,9.20
2022-12-03T02:52:48.689Z,7.55
2022-12-03T02:54:50.518Z,8.65
2022-12-03T02:56:52.444Z,8.55
2022-12-03T02:58:56.959Z,7.55
2022-12-03T03:00:59.467Z,8.60
2022-12-03T03:03:02.795Z,9.50
2022-12-03T03:05:06.111Z,8.57
2022-12-03T03:07:08.074Z,8.13
2022-12-03T03:09:09.985Z,8.43
2022-12-03T03:11:11.850Z,9.52
2022-12-03T03:13:16.185Z,9.48
2022-12-03T03:15:21.021Z,10.15
2022-12-03T03:17:23.080Z,9.90
2022-12-03T03:19:28.999Z,9.45
2022-12-03T03:21:30.699Z,8.70
2022-12-03T03:23:32.549Z,8.52
2022-12-03T03:25:34.231Z,10.43
2022-12-03T03:27:36.394Z,9.32
2022-12-03T03:29:38.204Z,9.05
2022-12-03T03:31:41.093Z,8.15
2022-12-03T03:33:44.513Z,11.90
2022-12-03T03:35:46.860Z,9.52
2022-12-03T03:37:48.654Z,10.85
2022-12-03T03:39:50.562Z,9.38
2022-12-03T03:41:52.337Z,10.10
2022-12-03T03:43:54.260Z,10.90
2022-12-03T03:45:56.216Z,10.30
2022-12-03T03:47:58.526Z,9.85
2022-12-03T03:50:00.249Z,9.93
2022-12-03T03:52:02.304Z,10.02
2022-12-03T03:54:04.699Z,11.15
2022-12-03T03:56:06.985Z,10.70
2022-12-03T03:58:09.077Z,9.95
2022-12-03T04:00:11.567Z,11.05
2022-12-03T04:02:25.306Z,9.02
2022-12-03T04:04:28.097Z,12.00
2022-12-03T04:06:29.869Z,11.07
2022-12-03T04:08:31.833Z,10.30
2022-12-03T04:10:51.985Z,10.48
2022-12-03T04:12:56.511Z,11.68
2022-12-03T04:14:58.875Z,10.10
2022-12-03T04:17:00.679Z,11.68
2022-12-03T04:19:02.415Z,10.32
2022-12-03T04:21:22.707Z,10.07
2022-12-03T04:23:30.620Z,9.75
2022-12-03T04:25:51.819Z,11.57
2022-12-03T04:28:12.641Z,11.70
2022-12-03T04:30:14.764Z,11.55
2022-12-03T04:32:35.325Z,11.15
2022-12-03T04:35:12.384Z,11.45
2022-12-03T04:37:14.207Z,11.68
2022-12-03T04:39:16.138Z,12.50
2022-12-03T04:41:18.109Z,10.30
2022-12-03T04:43:19.838Z,10.18
2022-12-03T04:45:21.572Z,12.23
2022-12-03T04:47:23.452Z,11.02
2022-12-03T04:49:25.155Z,13.50
2022-12-03T04:51:26.892Z,12.10
2022-12-03T04:53:28.607Z,11.40
2022-12-03T04:55:30.427Z,12.20
2022-12-03T04:57:32.378Z,11.82
2022-12-03T04:59:35.451Z,11.38
2022-12-03T05:01:37.213Z,12.15
2022-12-03T05:03:39.863Z,11.48
2022-12-03T05:05:41.647Z,12.43
2022-12-03T05:07:43.521Z,12.73
2022-12-03T05:09:45.384Z,11.77
2022-12-03T05:11:53.167Z,12.55
2022-12-03T05:13:55.044Z,13.77
2022-12-03T05:15:56.738Z,11.40
2022-12-03T05:17:58.481Z,11.85
2022-12-03T05:20:18.833Z,12.10
2022-12-03T05:22:20.652Z,11.55
2022-12-03T05:24:22.443Z,13.38
2022-12-03T05:26:24.279Z,12.93
2022-12-03T05:28:26.041Z,10.13
2022-12-03T05:30:28.023Z,10.75
2022-12-03T05:32:29.784Z,12.57
2022-12-03T05:34:31.507Z,12.63
2022-12-03T05:36:33.194Z,13.60
2022-12-03T05:38:35.076Z,12.82
2022-12-03T05:40:36.811Z,12.90
2022-12-03T05:42:54.170Z,12.18
2022-12-03T05:44:56.404Z,10.65
2022-12-03T05:46:58.338Z,11.23
2022-12-03T05:49:00.694Z,11.68
2022-12-03T05:51:02.655Z,10.82
2022-12-03T05:53:04.915Z,11.75
2022-12-03T05:55:07.933Z,12.73
2022-12-03T05:57:09.746Z,12.45
2022-12-03T05:59:11.656Z,11.05
2022-12-03T06:01:13.347Z,12.15
2022-12-03T06:03:15.274Z,12.30
2022-12-03T06:05:19.539Z,12.27
2022-12-03T06:07:21.390Z,12.48
2022-12-03T06:09:23.207Z,10.82
2022-12-03T06:11:25.046Z,11.63
2022-12-03T06:13:26.788Z,12.10
2022-12-03T06:15:28.637Z,11.00
2022-12-03T06:17:30.520Z,12.93
2022-12-03T06:19:32.240Z,12.55
2022-12-03T06:21:33.923Z,12.43
2022-12-03T06:23:36.035Z,13.60
2022-12-03T06:25:37.803Z,13.35
2022-12-03T06:27:39.655Z,11.70
2022-12-03T06:29:41.364Z,11.27
2022-12-03T06:31:43.225Z,13.02
2022-12-03T06:33:45.002Z,12.60
2022-12-03T06:35:46.720Z,13.48
2022-12-03T06:37:48.476Z,14.85
2022-12-03T06:39:50.275Z,12.00
2022-12-03T06:41:52.099Z,13.18
2022-12-03T06:43:53.824Z,13.23
2022-12-03T06:45:55.633Z,12.13
2022-12-03T06:47:57.403Z,12.30
2022-12-03T06:49:59.050Z,13.13
2022-12-03T06:52:00.877Z,13.48
2022-12-03T06:54:02.864Z,13.35
2022-12-03T06:56:04.947Z,15.48
2022-12-03T06:58:09.646Z,14.93
2022-12-03T07:00:12.041Z,14.05
2022-12-03T07:02:13.907Z,13.70
2022-12-03T07:04:15.703Z,14.82
2022-12-03T07:06:17.536Z,15.45
2022-12-03T07:08:19.381Z,12.60
2022-12-03T07:10:22.132Z,13.60
2022-12-03T07:12:23.898Z,14.57
2022-12-03T07:14:25.666Z,13.05
2022-12-03T07:16:30.305Z,14.27
2022-12-03T07:18:32.054Z,13.90
2022-12-03T07:20:33.837Z,15.15
2022-12-03T07:22:35.584Z,14.45
2022-12-03T07:24:37.247Z,13.70
2022-12-03T07:26:39.038Z,12.85
2022-12-03T07:28:40.743Z,13.30
2022-12-03T07:30:42.424Z,11.90
2022-12-03T07:32:44.103Z,16.75
2022-12-03T07:34:45.901Z,13.23
2022-12-03T07:36:47.779Z,14.93
2022-12-03T07:38:49.778Z,15.10
2022-12-03T07:40:51.637Z,16.35
2022-12-03T07:42:53.446Z,13.95
2022-12-03T07:44:55.576Z,16.08
2022-12-03T07:46:58.263Z,15.48
2022-12-03T07:49:00.040Z,15.00
2022-12-03T07:51:01.844Z,13.55
2022-12-03T07:53:03.611Z,13.32
2022-12-03T07:55:05.837Z,14.70
2022-12-03T07:57:07.665Z,15.35
2022-12-03T07:59:09.519Z,13.82
2022-12-03T08:01:11.436Z,13.77
2022-12-03T08:03:13.360Z,14.18
2022-12-03T08:05:15.379Z,13.70
2022-12-03T08:07:17.103Z,14.95
2022-12-03T08:09:19.010Z,13.90
2022-12-03T08:11:20.889Z,13.55
2022-12-03T08:13:22.904Z,14.93
2022-12-03T08:15:25.768Z,13.63
2022-12-03T08:17:28.552Z,13.48
2022-12-03T08:19:30.675Z,12.00
2022-12-03T08:21:35.453Z,13.30
2022-12-03T08:23:37.274Z,13.88
2022-12-03T08:25:40.012Z,11.27
2022-12-03T08:27:50.696Z,14.02
2022-12-03T08:30:20.176Z,13.73
2022-12-03T08:32:24.293Z,12.98
2022-12-03T08:34:28.386Z,13.80
2022-12-03T08:36:31.364Z,13.48
2022-12-03T08:38:33.981Z,12.63
2022-12-03T08:40:39.124Z,14.38
2022-12-03T08:42:43.691Z,13.38
2022-12-03T08:44:45.449Z,12.90
2022-12-03T08:46:52.752Z,13.85
2022-12-03T08:48:54.516Z,13.65
2022-12-03T08:50:58.912Z,13.95
2022-12-03T08:53:24.793Z,12.82
2022-12-03T08:55:36.222Z,13.75
2022-12-03T08:57:38.022Z,12.02
2022-12-03T08:59:45.244Z,13.90
2022-12-03T09:01:48.297Z,13.85
2022-12-03T09:03:55.001Z,11.85
2022-12-03T09:05:56.857Z,13.48
2022-12-03T09:07:58.752Z,13.40
2022-12-03T09:10:00.496Z,13.02
2022-12-03T09:12:02.302Z,14.27
2022-12-03T09:14:04.332Z,13.25
2022-12-03T09:16:06.374Z,13.38
2022-12-03T09:18:08.323Z,14.43
2022-12-03T09:20:10.564Z,11.75
2022-12-03T09:22:12.358Z,14.45
2022-12-03T09:24:29.170Z,13.77
2022-12-03T09:26:30.898Z,14.40
2022-12-03T09:28:32.759Z,12.60
2022-12-03T09:30:34.516Z,11.70
2022-12-03T09:32:39.796Z,13.65
2022-12-03T09:34:42.717Z,12.05
2022-12-03T09:36:44.477Z,12.48
2022-12-03T09:38:48.276Z,14.25
2022-12-03T09:40:50.243Z,12.52
2022-12-03T09:42:52.327Z,11.55
2022-12-03T09:44:54.605Z,13.07
2022-12-03T09:47:00.101Z,12.90
2022-12-03T09:49:02.982Z,12.55
2022-12-03T09:51:04.918Z,11.38
2022-12-03T09:53:06.712Z,12.02
2022-12-03T09:55:15.188Z,12.65
2022-12-03T09:57:17.386Z,13.60
2022-12-03T09:59:19.184Z,11.93
2022-12-03T10:01:21.096Z,13.15
2022-12-03T10:03:29.858Z,11.68
2022-12-03T10:05:32.293Z,11.48
2022-12-03T10:07:34.231Z,12.68
2022-12-03T10:09:35.968Z,11.55
2022-12-03T10:11:38.186Z,11.75
2022-12-03T10:13:40.212Z,12.18
2022-12-03T10:15:42.078Z,11.70
2022-12-03T10:17:44.358Z,12.70
2022-12-03T10:19:46.299Z,9.48
2022-12-03T10:21:48.192Z,13.10
2022-12-03T10:24:19.831Z,12.32
2022-12-03T10:26:38.111Z,11.93
2022-12-03T10:28:42.274Z,11.00
2022-12-03T10:30:55.560Z,12.90
2022-12-03T10:32:58.777Z,13.45
2022-12-03T10:35:13.334Z,11.35
2022-12-03T10:37:20.869Z,11.05
2022-12-03T10:39:22.835Z,12.88
2022-12-03T10:41:26.894Z,12.60
2022-12-03T10:43:28.758Z,13.73
2022-12-03T10:45:30.568Z,12.15
2022-12-03T10:47:32.453Z,11.30
2022-12-03T10:49:34.792Z,13.38
2022-12-03T10:51:37.241Z,15.30
2022-12-03T10:53:40.658Z,12.68
2022-12-03T10:55:43.572Z,11.23
2022-12-03T10:57:46.282Z,10.90
2022-12-03T10:59:48.279Z,13.60
2022-12-03T11:01:50.263Z,12.95
2022-12-03T11:03:53.172Z,11.68
2022-12-03T11:05:56.543Z,11.75
2022-12-03T11:07:58.363Z,12.45
2022-12-03T11:10:01.898Z,12.43
2022-12-03T11:12:08.282Z,10.77
2022-12-03T11:14:10.876Z,12.32
2022-12-03T11:16:13.849Z,11.55
2022-12-03T11:18:37.191Z,11.13
2022-12-03T11:20:47.570Z,11.15
2022-12-03T11:22:56.208Z,11.82
2022-12-03T11:25:26.423Z,14.13
2022-12-03T11:27:28.199Z,11.93
2022-12-03T11:29:51.795Z,11.90
2022-12-03T11:31:53.486Z,12.82
2022-12-03T11:34:20.915Z,13.20
2022-12-03T11:36:42.081Z,11.48
2022-12-03T11:38:52.967Z,10.48
2022-12-03T11:41:14.562Z,10.77
2022-12-03T11:43:57.040Z,10.77
2022-12-03T11:46:08.893Z,10.73
2022-12-03T11:48:13.908Z,12.95
2022-12-03T11:50:39.761Z,10.90
2022-12-03T11:52:44.876Z,11.60
2022-12-03T11:54:50.036Z,11.20
2022-12-03T11:56:52.793Z,10.45
2022-12-03T11:59:02.428Z,10.82
2022-12-03T12:01:07.057Z,9.20
2022-12-03T12:03:33.107Z,10.57
2022-12-03T12:05:35.708Z,11.15
2022-12-03T12:07:37.648Z,10.95
2022-12-03T12:09:54.201Z,11.93
2022-12-03T12:11:56.376Z,11.25
2022-12-03T12:13:59.903Z,10.23
2022-12-03T12:16:05.172Z,8.48
2022-12-03T12:18:39.709Z,10.82
2022-12-03T12:20:41.585Z,10.57
2022-12-03T12:22:43.459Z,10.30
2022-12-03T12:24:47.143Z,11.02
2022-12-03T12:26:52.384Z,10.80
2022-12-03T12:28:54.161Z,9.57
2022-12-03T12:30:55.973Z,9.63
2022-12-03T12:33:10.965Z,10.25
2022-12-03T12:35:13.724Z,8.27
2022-12-03T12:37:24.039Z,9.52
2022-12-03T12:39:26.084Z,9.90
2022-12-03T12:41:27.838Z,10.13
2022-12-03T12:43:32.587Z,10.82
2022-12-03T12:45:35.594Z,8.65
2022-12-03T12:47:37.473Z,10.98
2022-12-03T12:49:39.298Z,11.40
2022-12-03T12:51:45.849Z,10.43
2022-12-03T12:53:47.995Z,9.85
2022-12-03T12:56:07.166Z,11.55
2022-12-03T12:58:15.626Z,10.25
2022-12-03T13:00:23.082Z,10.73
2022-12-03T13:02:31.152Z,10.07
2022-12-03T13:04:33.260Z,9.27
2022-12-03T13:06:34.968Z,9.35
2022-12-03T13:08:43.099Z,10.68
2022-12-03T13:10:44.796Z,10.80
2022-12-03T13:12:46.527Z,9.98
2022-12-03T13:14:48.351Z,10.68
2022-12-03T13:16:52.294Z,9.27
2022-12-03T13:18:55.822Z,10.50
2022-12-03T13:20:57.710Z,9.70
2022-12-03T13:22:59.382Z,10.18
2022-12-03T13:25:04.167Z,10.07
2022-12-03T13:27:23.198Z,9.85
2022-12-03T13:29:26.463Z,10.85
2022-12-03T13:31:31.093Z,9.57
2022-12-03T13:33:33.506Z,9.85
2022-12-03T13:35:36.451Z,9.88
2022-12-03T13:37:38.778Z,10.00
2022-12-03T13:39:48.147Z,10.68
2022-12-03T13:42:08.979Z,10.63
2022-12-03T13:44:16.896Z,11.52
2022-12-03T13:46:18.758Z,11.48
2022-12-03T13:48:32.012Z,10.07
2022-12-03T13:50:37.788Z,10.75
2022-12-03T13:52:39.497Z,10.73
2022-12-03T13:54:41.531Z,10.80
2022-12-03T13:56:43.476Z,10.23
2022-12-03T13:58:45.260Z,11.60
2022-12-03T14:00:47.343Z,10.68
2022-12-03T14:02:49.341Z,13.10
2022-12-03T14:04:54.208Z,11.40
2022-12-03T14:07:00.226Z,12.27
2022-12-03T14:09:02.005Z,11.45
2022-12-03T14:11:04.096Z,11.32
2022-12-03T14:13:05.812Z,11.30
2022-12-03T14:15:09.201Z,10.75
2022-12-03T14:17:11.853Z,10.60
2022-12-03T14:19:13.764Z,11.43
2022-12-03T14:21:15.532Z,9.88
2022-12-03T14:23:17.299Z,10.90
2022-12-03T14:25:19.148Z,10.70
2022-12-03T14:27:21.380Z,10.50
2022-12-03T14:29:23.207Z,10.73
2022-12-03T14:31:25.000Z,10.10
2022-12-03T14:33:26.780Z,10.98
2022-12-03T14:35:28.504Z,9.93
2022-12-03T14:37:30.286Z,10.80
2022-12-03T14:39:32.014Z,13.45
2022-12-03T14:41:52.262Z,10.18
2022-12-03T14:43:54.021Z,11.98
2022-12-03T14:45:55.911Z,10.13
2022-12-03T14:47:57.662Z,11.68
2022-12-03T14:49:59.483Z,10.82
2022-12-03T14:52:01.310Z,11.80
2022-12-03T14:54:03.144Z,11.00
2022-12-03T14:56:05.345Z,12.23
2022-12-03T14:58:07.047Z,12.38
2022-12-03T15:00:09.571Z,12.00
2022-12-03T15:02:12.562Z,13.13
2022-12-03T15:04:14.546Z,11.52
2022-12-03T15:06:16.367Z,11.73
2022-12-03T15:08:18.204Z,10.77
2022-12-03T15:10:20.396Z,12.65
2022-12-03T15:12:22.168Z,10.80
2022-12-03T15:14:24.063Z,13.73
2022-12-03T15:16:25.920Z,12.00
2022-12-03T15:18:27.805Z,12.43
2022-12-03T15:20:30.016Z,12.35
2022-12-03T15:22:31.887Z,11.40
2022-12-03T15:24:33.691Z,12.98
2022-12-03T15:26:35.530Z,12.82
2022-12-03T15:28:37.359Z,13.35
2022-12-03T15:30:39.078Z,12.65
2022-12-03T15:32:40.844Z,14.35
2022-12-03T15:34:42.702Z,13.18
2022-12-03T15:36:44.384Z,12.30
2022-12-03T15:38:46.206Z,13.65
2022-12-03T15:40:48.007Z,12.98
2022-12-03T15:42:49.761Z,11.90
2022-12-03T15:44:51.558Z,13.07
2022-12-03T15:46:53.270Z,13.18
2022-12-03T15:48:55.810Z,13.20
2022-12-03T15:50:57.637Z,14.57
2022-12-03T15:52:59.457Z,15.15
2022-12-03T15:55:01.519Z,14.63
2022-12-03T15:57:03.213Z,13.85
2022-12-03T15:59:04.998Z,13.38
2022-12-03T16:01:07.800Z,13.07
2022-12-03T16:03:09.588Z,14.50
2022-12-03T16:05:12.752Z,15.45
2022-12-03T16:07:14.500Z,14.02
2022-12-03T16:09:16.271Z,14.32
2022-12-03T16:11:18.082Z,13.05
2022-12-03T16:13:19.779Z,15.65
2022-12-03T16:15:26.733Z,15.05
2022-12-03T16:17:29.045Z,14.25
2022-12-03T16:19:30.809Z,13.95
2022-12-03T16:21:34.721Z,14.63
2022-12-03T16:23:36.877Z,14.25
2022-12-03T16:25:38.636Z,14.40
2022-12-03T16:27:40.524Z,14.73
2022-12-03T16:29:42.244Z,13.90
2022-12-03T16:31:44.471Z,14.48
2022-12-03T16:33:46.273Z,14.13
2022-12-03T16:35:48.189Z,15.13
2022-12-03T16:37:50.026Z,13.35
2022-12-03T16:39:52.085Z,14.73
2022-12-03T16:41:54.138Z,14.43
2022-12-03T16:43:55.949Z,14.55
2022-12-03T16:46:20.758Z,13.93
2022-12-03T16:48:23.295Z,14.80
2022-12-03T16:50:29.977Z,14.80
2022-12-03T16:52:32.240Z,14.50
2022-12-03T16:54:34.035Z,15.52
2022-12-03T16:56:35.913Z,14.98
2022-12-03T16:58:37.961Z,14.43
2022-12-03T17:00:39.669Z,14.55
2022-12-03T17:02:41.565Z,15.45
2022-12-03T17:04:43.585Z,11.88
2022-12-03T17:06:45.375Z,13.77
2022-12-03T17:08:49.839Z,13.20
2022-12-03T17:10:52.217Z,12.57
2022-12-03T17:13:09.308Z,13.85
2022-12-03T17:15:12.201Z,14.10
2022-12-03T17:17:14.076Z,14.85
2022-12-03T17:19:16.513Z,15.00
2022-12-03T17:21:18.380Z,14.80
2022-12-03T17:23:20.175Z,14.23
2022-12-03T17:25:21.966Z,14.95
2022-12-03T17:27:25.036Z,13.73
2022-12-03T17:29:26.971Z,13.65
2022-12-03T17:31:28.938Z,14.93
2022-12-03T17:33:30.803Z,14.00
2022-12-03T17:35:32.685Z,12.82
2022-12-03T17:37:37.476Z,13.35
2022-12-03T17:39:39.382Z,14.10
2022-12-03T17:41:41.257Z,14.18
2022-12-03T17:43:43.069Z,15.30
2022-12-03T17:45:44.775Z,14.00
2022-12-03T17:47:46.525Z,13.32
2022-12-03T17:49:48.309Z,14.85
2022-12-03T17:51:50.060Z,16.10
2022-12-03T17:53:51.938Z,13.63
2022-12-03T17:55:53.627Z,12.48
2022-12-03T17:57:55.410Z,14.95
2022-12-03T17:59:57.437Z,16.67
2022-12-03T18:01:59.353Z,16.30
2022-12-03T18:04:01.273Z,15.65
2022-12-03T18:06:03.827Z,13.50
2022-12-03T18:08:06.252Z,13.15
2022-12-03T18:10:08.366Z,14.05
2022-12-03T18:12:10.113Z,13.38
2022-12-03T18:14:13.482Z,14.60
2022-12-03T18:16:15.828Z,14.85
2022-12-03T18:18:17.844Z,17.83
2022-12-03T18:20:19.552Z,13.85
2022-12-03T18:22:21.537Z,14.30
2022-12-03T18:24:23.630Z,12.38
2022-12-03T18:26:25.475Z,15.05
2022-12-03T18:28:27.556Z,14.45
2022-12-03T18:30:29.398Z,13.85
2022-12-03T18:32:31.376Z,13.75
2022-12-03T18:34:36.446Z,15.15
2022-12-03T18:36:38.423Z,15.23
2022-12-03T18:38:40.221Z,14.60
2022-12-03T18:40:43.183Z,14.18
2022-12-03T18:42:45.042Z,13.85
2022-12-03T18:44:49.853Z,12.85
2022-12-03T18:46:53.869Z,16.08
2022-12-03T18:48:56.191Z,14.15
2022-12-03T18:50:58.002Z,15.57
2022-12-03T18:52:59.778Z,13.95
2022-12-03T18:55:01.854Z,12.70
2022-12-03T18:57:03.929Z,15.05
2022-12-03T18:59:07.481Z,14.23
2022-12-03T19:01:17.334Z,15.07
2022-12-03T19:03:19.355Z,15.18
2022-12-03T19:05:21.145Z,14.93
2022-12-03T19:07:23.004Z,12.55
2022-12-03T19:09:25.147Z,14.05
2022-12-03T19:11:26.911Z,14.27
2022-12-03T19:13:28.787Z,12.75
2022-12-03T19:15:30.539Z,16.00
2022-12-03T19:17:32.574Z,15.80
2022-12-03T19:19:34.428Z,13.00
2022-12-03T19:21:36.296Z,14.32
2022-12-03T19:23:38.541Z,14.45
2022-12-03T19:25:40.555Z,15.77
2022-12-03T19:27:42.895Z,15.07
2022-12-03T19:29:48.838Z,14.07
2022-12-03T19:31:51.568Z,14.30
2022-12-03T19:33:54.810Z,14.70
2022-12-03T19:35:58.065Z,14.65
2022-12-03T19:37:59.865Z,15.80
2022-12-03T19:40:01.694Z,14.57
2022-12-03T19:42:03.581Z,14.45
2022-12-03T19:44:10.763Z,13.13
2022-12-03T19:46:13.052Z,13.27
2022-12-03T19:48:14.812Z,15.55
2022-12-03T19:50:22.649Z,14.98
2022-12-03T19:52:25.552Z,14.50
2022-12-03T19:54:30.489Z,13.68
2022-12-03T19:56:32.510Z,15.73
2022-12-03T19:58:34.712Z,15.93
2022-12-03T20:00:36.624Z,12.50
2022-12-03T20:02:38.403Z,13.82
2022-12-03T20:04:40.194Z,14.35
2022-12-03T20:06:41.999Z,14.48
2022-12-03T20:08:44.588Z,14.00
2022-12-03T20:10:46.351Z,13.45
2022-12-03T20:12:48.128Z,12.95
2022-12-03T20:14:50.228Z,14.25
2022-12-03T20:16:52.110Z,14.60
2022-12-03T20:18:59.401Z,14.57
2022-12-03T20:21:02.115Z,13.27
2022-12-03T20:23:03.949Z,12.25
2022-12-03T20:25:06.642Z,15.23
2022-12-03T20:27:08.411Z,15.15
2022-12-03T20:29:10.174Z,14.55
2022-12-03T20:31:14.889Z,13.60
2022-12-03T20:33:19.810Z,13.63
2022-12-03T20:35:21.588Z,14.80
2022-12-03T20:37:23.348Z,13.85
2022-12-03T20:39:25.215Z,14.85
2022-12-03T20:41:27.188Z,13.23
2022-12-03T20:43:29.184Z,14.52
2022-12-03T20:45:31.003Z,14.88
2022-12-03T20:47:32.864Z,12.82
2022-12-03T20:49:34.668Z,13.80
2022-12-03T20:51:36.870Z,14.63
2022-12-03T20:53:38.781Z,14.07
2022-12-03T20:55:40.907Z,15.32
2022-12-03T20:57:42.625Z,14.57
2022-12-03T20:59:44.382Z,15.68
2022-12-03T21:01:46.334Z,14.60
2022-12-03T21:03:49.741Z,14.40
2022-12-03T21:05:59.358Z,14.65
2022-12-03T21:08:01.242Z,14.15
2022-12-03T21:10:03.191Z,12.80
2022-12-03T21:12:05.080Z,13.55
2022-12-03T21:14:06.903Z,13.10
2022-12-03T21:16:11.497Z,13.95
2022-12-03T21:18:15.640Z,15.80
2022-12-03T21:20:21.009Z,14.60
2022-12-03T21:22:23.151Z,12.85
2022-12-03T21:24:25.013Z,12.73
2022-12-03T21:26:26.824Z,13.43
2022-12-03T21:28:29.019Z,12.70
2022-12-03T21:30:30.958Z,13.00
2022-12-03T21:32:32.796Z,13.25
2022-12-03T21:34:36.555Z,11.68
2022-12-03T21:36:38.681Z,12.82
2022-12-03T21:38:41.590Z,13.55
2022-12-03T21:40:43.332Z,12.35
2022-12-03T21:42:45.204Z,12.82
2022-12-03T21:44:47.015Z,12.13
2022-12-03T21:47:11.511Z,11.77
2022-12-03T21:49:10.474Z,11.80
2022-12-03T21:51:14.225Z,14.55
2022-12-03T21:53:15.970Z,13.07
2022-12-03T21:55:20.397Z,14.50
2022-12-03T21:57:22.130Z,13.77
2022-12-03T21:59:23.910Z,13.35
2022-12-03T22:01:25.876Z,13.45
2022-12-03T22:03:27.803Z,13.95
2022-12-03T22:05:29.554Z,14.23
2022-12-03T22:07:33.356Z,12.77
2022-12-03T22:09:35.320Z,12.75
2022-12-03T22:11:37.268Z,13.75
2022-12-03T22:13:39.303Z,13.45
2022-12-03T22:15:41.045Z,12.88
2022-12-03T22:17:42.835Z,11.35
2022-12-03T22:19:44.523Z,12.52
2022-12-03T22:21:46.715Z,12.48
2022-12-03T22:23:48.569Z,14.40
2022-12-03T22:25:59.203Z,16.48
2022-12-03T22:28:00.952Z,14.57
2022-12-03T22:30:03.467Z,14.45
2022-12-03T22:32:33.647Z,12.70
2022-12-03T22:34:35.514Z,13.27
2022-12-03T22:36:37.481Z,11.60
2022-12-03T22:38:39.316Z,13.15
2022-12-03T22:40:41.063Z,15.10
2022-12-03T22:42:47.776Z,11.75
2022-12-03T22:44:52.482Z,12.23
2022-12-03T22:46:54.330Z,14.55
2022-12-03T22:48:58.468Z,13.00
2022-12-03T22:51:03.823Z,13.52
2022-12-03T22:53:05.554Z,12.65
2022-12-03T22:55:07.812Z,12.65
2022-12-03T22:57:09.646Z,12.40
2022-12-03T22:59:11.495Z,13.50
2022-12-03T23:01:30.843Z,14.45
2022-12-03T23:03:32.869Z,12.45
2022-12-03T23:05:38.628Z,14.48
2022-12-03T23:07:41.807Z,13.20
2022-12-03T23:09:43.721Z,12.75
2022-12-03T23:11:45.914Z,10.93
2022-12-03T23:13:47.756Z,12.73
2022-12-03T23:15:51.719Z,13.77
2022-12-03T23:17:53.518Z,14.77
2022-12-03T23:19:55.456Z,13.60
2022-12-03T23:21:58.057Z,11.88
2022-12-03T23:24:01.468Z,14.27
2022-12-03T23:26:06.391Z,14.15
2022-12-03T23:28:09.011Z,13.00
2022-12-03T23:30:12.227Z,11.73
2022-12-03T23:32:13.984Z,12.27
2022-12-03T23:34:15.823Z,12.88
2022-12-03T23:36:18.145Z,11.27
2022-12-03T23:38:20.256Z,14.00
2022-12-03T23:40:22.391Z,12.63
2022-12-03T23:42:24.306Z,12.07
2022-12-03T23:44:27.733Z,12.32
2022-12-03T23:46:29.706Z,11.25
2022-12-03T23:48:31.652Z,13.23
2022-12-03T23:50:34.971Z,13.00
2022-12-03T23:52:36.774Z,10.63
2022-12-03T23:54:38.616Z,13.02
2022-12-03T23:56:41.032Z,11.63
2022-12-03T23:58:43.531Z,11.55
